Time;durP1;ratioP1;P1;durP2;ratioP2;P2;SDS_P1;SDS_P2;PMS_P1;PMS_P2;Temp;Humidity;BMP_temperature;BMP_pressure;BME280_temperature;BME280_humidity;BME280_pressure;Samples;Min_cycle;Max_cycle;Signal;HPM_P1;HPM_P2
2021/06/28 00:01:08;;;;;;;1.55;1.45;;;18.50;93.60;;;;;;5055162;28;20112;-72
2021/06/28 00:03:34;;;;;;;1.63;1.52;;;18.50;93.60;;;;;;5055809;28;20028;-72
2021/06/28 00:06:00;;;;;;;1.83;1.55;;;18.50;93.50;;;;;;5055696;28;20032;-71
2021/06/28 00:08:26;;;;;;;1.30;1.20;;;18.50;93.50;;;;;;5055266;28;20079;-72
2021/06/28 00:10:52;;;;;;;1.65;1.50;;;18.60;93.50;;;;;;5055337;28;20021;-71
2021/06/28 00:13:17;;;;;;;2.33;1.63;;;18.60;93.50;;;;;;5055237;28;20128;-72
2021/06/28 00:15:43;;;;;;;1.48;1.38;;;18.50;93.50;;;;;;5054914;28;20029;-72
2021/06/28 00:18:09;;;;;;;1.50;1.40;;;18.50;93.50;;;;;;5055243;28;20017;-71
2021/06/28 00:20:36;;;;;;;1.73;1.35;;;18.60;93.50;;;;;;5055192;28;20029;-72
2021/06/28 00:23:03;;;;;;;2.33;1.80;;;18.60;93.50;;;;;;5055193;28;20096;-72
2021/06/28 00:25:29;;;;;;;1.40;1.30;;;18.50;93.40;;;;;;5055392;28;20028;-71
2021/06/28 00:27:55;;;;;;;1.90;1.60;;;18.50;93.50;;;;;;5055135;28;20104;-72
2021/06/28 00:30:22;;;;;;;2.92;1.90;;;18.50;93.40;;;;;;5054638;28;20056;-72
2021/06/28 00:32:49;;;;;;;1.65;1.55;;;18.50;93.40;;;;;;5054977;28;20025;-72
2021/06/28 00:35:17;;;;;;;2.00;1.48;;;18.50;93.40;;;;;;5055079;28;20029;-71
2021/06/28 00:37:43;;;;;;;2.03;1.55;;;18.50;93.40;;;;;;5055071;28;20097;-71
2021/06/28 00:40:11;;;;;;;3.13;1.83;;;18.50;93.40;;;;;;5054986;28;20060;-72
2021/06/28 00:42:37;;;;;;;1.88;1.42;;;18.50;93.40;;;;;;5054707;28;20029;-72
2021/06/28 00:45:21;;;;;;;1.60;1.50;;;18.50;93.30;;;;;;5054408;28;20044;-72
2021/06/28 00:47:49;;;;;;;1.85;1.70;;;18.50;93.20;;;;;;5054861;28;20021;-72
2021/06/28 00:50:16;;;;;;;1.98;1.50;;;18.40;93.30;;;;;;5036989;28;20477;-72
2021/06/28 00:52:43;;;;;;;2.30;1.77;;;18.40;93.30;;;;;;5054789;28;20491;-72
2021/06/28 00:55:10;;;;;;;1.90;1.70;;;18.40;93.30;;;;;;5054444;28;20032;-72
2021/06/28 00:57:36;;;;;;;2.42;1.65;;;18.40;93.30;;;;;;5054407;28;20032;-72
2021/06/28 01:00:05;;;;;;;1.73;1.60;;;18.30;93.30;;;;;;5054135;28;20021;-72
2021/06/28 01:02:31;;;;;;;2.60;1.70;;;18.30;93.40;;;;;;5054459;28;20041;-72
2021/06/28 01:04:57;;;;;;;2.00;1.80;;;18.30;93.40;;;;;;5054363;28;20032;-72
2021/06/28 01:07:22;;;;;;;1.67;1.40;;;18.30;93.40;;;;;;5054526;28;20033;-72
2021/06/28 01:09:48;;;;;;;2.13;1.80;;;18.30;93.40;;;;;;5054277;28;20119;-72
2021/06/28 01:12:14;;;;;;;1.88;1.58;;;18.30;93.40;;;;;;5054207;28;20110;-71
2021/06/28 01:14:40;;;;;;;1.88;1.55;;;18.20;93.30;;;;;;5035937;28;20017;-72
2021/06/28 01:17:07;;;;;;;2.22;1.98;;;18.20;93.40;;;;;;5054124;28;20029;-72
2021/06/28 01:19:34;;;;;;;1.70;1.60;;;18.20;93.40;;;;;;5054214;28;20021;-71
2021/06/28 01:22:03;;;;;;;1.95;1.75;;;18.20;93.30;;;;;;5054018;28;20033;-71
2021/06/28 01:24:29;;;;;;;2.33;2.07;;;18.20;93.30;;;;;;5053972;28;20037;-73
2021/06/28 01:26:55;;;;;;;1.92;1.52;;;18.20;93.30;;;;;;5054009;28;20107;-71
2021/06/28 01:29:21;;;;;;;2.50;2.00;;;18.20;93.30;;;;;;5053626;28;20531;-72
2021/06/28 01:31:47;;;;;;;2.65;1.75;;;18.20;93.50;;;;;;5053902;28;20025;-71
2021/06/28 01:34:12;;;;;;;2.22;1.70;;;18.20;93.20;;;;;;5036044;28;20033;-72
2021/06/28 01:36:38;;;;;;;1.98;1.63;;;18.20;93.20;;;;;;5053861;28;20075;-71
2021/06/28 01:39:04;;;;;;;2.60;2.03;;;18.20;93.20;;;;;;5053633;28;20501;-72
2021/06/28 01:41:30;;;;;;;2.05;1.85;;;18.20;93.20;;;;;;5053656;28;20045;-72
2021/06/28 01:43:55;;;;;;;2.35;1.90;;;18.20;93.10;;;;;;5053339;28;20095;-72
2021/06/28 01:46:21;;;;;;;1.92;1.67;;;18.20;93.10;;;;;;5035783;28;20064;-73
2021/06/28 01:48:47;;;;;;;2.72;2.10;;;18.20;93.10;;;;;;5035770;28;20079;-72
2021/06/28 01:51:12;;;;;;;1.90;1.70;;;18.20;93.10;;;;;;5053449;28;20025;-75
2021/06/28 01:53:39;;;;;;;2.05;1.80;;;18.20;93.00;;;;;;5053441;28;20021;-71
2021/06/28 01:56:05;;;;;;;2.20;1.75;;;18.20;93.00;;;;;;5035655;28;20037;-73
2021/06/28 01:58:33;;;;;;;2.45;1.75;;;18.10;93.00;;;;;;5052914;28;20477;-72
2021/06/28 02:00:59;;;;;;;2.28;1.70;;;18.10;93.10;;;;;;5035521;28;20075;-72
2021/06/28 02:03:27;;;;;;;1.83;1.42;;;18.10;93.10;;;;;;5053212;28;20466;-72
2021/06/28 02:05:56;;;;;;;2.63;1.77;;;18.10;93.10;;;;;;5053637;28;20025;-72
2021/06/28 02:08:24;;;;;;;2.65;1.90;;;18.10;93.00;;;;;;5053147;28;20036;-72
2021/06/28 02:10:55;;;;;;;2.17;1.87;;;18.10;93.00;;;;;;5034983;28;20351;-72
2021/06/28 02:13:23;;;;;;;2.80;1.90;;;18.10;93.00;;;;;;5052497;28;20041;-72
2021/06/28 02:15:49;;;;;;;1.60;1.50;;;18.10;93.00;;;;;;5053218;28;20044;-73
2021/06/28 02:18:15;;;;;;;2.13;1.60;;;18.10;92.90;;;;;;5053124;28;20040;-73
2021/06/28 02:20:41;;;;;;;1.92;1.55;;;18.10;92.90;;;;;;5053082;28;20393;-73
2021/06/28 02:23:33;;;;;;;2.75;2.15;;;18.10;93.20;;;;;;5053128;28;20025;-72
2021/06/28 02:26:06;;;;;;;1.95;1.50;;;18.00;92.90;;;;;;5052617;28;20454;-72
2021/06/28 02:28:37;;;;;;;1.80;1.48;;;18.00;93.00;;;;;;5053236;28;20029;-72
2021/06/28 02:31:05;;;;;;;1.90;1.70;;;18.00;93.00;;;;;;5052871;28;20370;-72
2021/06/28 02:33:32;;;;;;;1.95;1.73;;;18.00;93.00;;;;;;5052930;28;20037;-72
2021/06/28 02:35:58;;;;;;;1.95;1.70;;;18.00;93.00;;;;;;5052816;28;20021;-72
2021/06/28 02:38:24;;;;;;;2.00;1.75;;;18.00;93.00;;;;;;5053075;28;20024;-72
2021/06/28 02:40:50;;;;;;;1.98;1.67;;;18.00;92.90;;;;;;5052595;28;20037;-72
2021/06/28 02:43:16;;;;;;;1.92;1.50;;;18.00;92.90;;;;;;5034906;28;20473;-72
2021/06/28 02:45:42;;;;;;;2.13;1.63;;;18.00;92.90;;;;;;5034954;28;20032;-72
2021/06/28 02:48:08;;;;;;;2.15;1.85;;;18.00;92.90;;;;;;5052897;28;20474;-72
2021/06/28 02:50:34;;;;;;;2.50;1.67;;;18.00;92.90;;;;;;5052923;28;20036;-72
2021/06/28 02:52:59;;;;;;;1.98;1.40;;;18.00;92.90;;;;;;5052944;28;20052;-72
2021/06/28 02:55:25;;;;;;;2.03;1.67;;;17.90;92.80;;;;;;5052457;28;20021;-72
2021/06/28 02:57:50;;;;;;;1.48;1.33;;;18.00;92.80;;;;;;5052821;28;20021;-72
2021/06/28 03:00:17;;;;;;;1.50;1.40;;;18.00;92.80;;;;;;5052613;28;20548;-72
2021/06/28 03:02:43;;;;;;;2.33;1.60;;;18.00;92.80;;;;;;5052966;28;20033;-72
2021/06/28 03:05:11;;;;;;;2.55;1.38;;;17.90;93.00;;;;;;5052779;28;20482;-72
2021/06/28 03:07:37;;;;;;;1.75;1.60;;;17.90;92.80;;;;;;5034885;28;20049;-72
2021/06/28 03:10:11;;;;;;;1.92;1.45;;;17.90;93.00;;;;;;5052213;28;20400;-72
2021/06/28 03:12:37;;;;;;;1.80;1.65;;;17.90;92.70;;;;;;5052450;28;20064;-71
2021/06/28 03:15:09;;;;;;;1.60;1.48;;;17.90;92.70;;;;;;5052453;28;20048;-72
2021/06/28 03:17:35;;;;;;;1.85;1.67;;;17.90;92.60;;;;;;5052647;28;20029;-71
2021/06/28 03:20:04;;;;;;;1.92;1.73;;;17.90;92.70;;;;;;5052564;28;20493;-72
2021/06/28 03:22:29;;;;;;;1.92;1.70;;;17.90;92.60;;;;;;5054021;28;20028;-72
2021/06/28 03:24:55;;;;;;;2.10;1.55;;;17.80;92.60;;;;;;5055895;28;20362;-72
2021/06/28 03:27:21;;;;;;;1.95;1.50;;;17.80;92.60;;;;;;5056279;28;20085;-72
2021/06/28 03:29:49;;;;;;;1.70;1.25;;;17.80;92.60;;;;;;5056204;28;20021;-72
2021/06/28 03:32:15;;;;;;;2.47;1.75;;;17.80;92.60;;;;;;5056224;28;20123;-71
2021/06/28 03:34:40;;;;;;;1.42;1.33;;;17.80;92.60;;;;;;5056071;28;20040;-72
2021/06/28 03:37:06;;;;;;;1.30;1.17;;;17.80;92.60;;;;;;5038226;28;20500;-72
2021/06/28 03:39:32;;;;;;;2.35;1.85;;;17.80;92.60;;;;;;5037745;28;20044;-72
2021/06/28 03:41:58;;;;;;;2.42;1.88;;;17.80;92.60;;;;;;5055964;28;20508;-71
2021/06/28 03:44:24;;;;;;;2.10;1.75;;;17.80;92.60;;;;;;5055942;28;20021;-72
2021/06/28 03:46:49;;;;;;;1.95;1.60;;;17.80;92.60;;;;;;5055915;28;20025;-71
2021/06/28 03:49:15;;;;;;;2.05;1.85;;;17.80;92.60;;;;;;5056141;28;20021;-71
2021/06/28 03:51:41;;;;;;;2.05;1.63;;;17.80;92.60;;;;;;5037819;28;20083;-72
2021/06/28 03:54:07;;;;;;;1.90;1.55;;;17.80;92.60;;;;;;5037639;28;20013;-72
2021/06/28 03:56:32;;;;;;;2.10;1.65;;;17.70;92.60;;;;;;5055720;28;20430;-72
2021/06/28 03:58:58;;;;;;;2.30;1.70;;;17.80;92.70;;;;;;5055717;28;20025;-71
2021/06/28 04:01:23;;;;;;;2.05;1.50;;;17.80;92.60;;;;;;5055557;28;20039;-72
2021/06/28 04:03:51;;;;;;;2.33;1.45;;;17.80;92.60;;;;;;5055694;28;20468;-72
2021/06/28 04:06:16;;;;;;;2.35;1.92;;;17.80;92.60;;;;;;5055708;28;20032;-72
2021/06/28 04:08:42;;;;;;;1.67;1.40;;;17.80;92.60;;;;;;5054995;28;20013;-71
2021/06/28 04:11:08;;;;;;;2.15;1.80;;;17.80;92.60;;;;;;5055499;28;20109;-72
2021/06/28 04:13:33;;;;;;;2.35;1.60;;;17.80;92.60;;;;;;5055372;28;20045;-71
2021/06/28 04:15:59;;;;;;;2.10;1.60;;;17.80;92.60;;;;;;5055431;28;20055;-72
2021/06/28 04:18:24;;;;;;;2.25;1.60;;;17.90;92.60;;;;;;5055454;28;20505;-72
2021/06/28 04:20:50;;;;;;;1.90;1.55;;;17.90;92.60;;;;;;5055206;28;20520;-71
2021/06/28 04:23:17;;;;;;;1.77;1.55;;;17.90;92.50;;;;;;5054885;28;20473;-71
2021/06/28 04:25:42;;;;;;;2.30;1.75;;;17.90;92.60;;;;;;5055507;28;20032;-71
2021/06/28 04:28:09;;;;;;;1.83;1.50;;;17.90;92.60;;;;;;5055245;28;20020;-71
2021/06/28 04:30:34;;;;;;;2.05;1.40;;;17.90;92.60;;;;;;5055130;28;20039;-71
2021/06/28 04:33:00;;;;;;;2.42;1.55;;;17.90;92.60;;;;;;5054441;28;20100;-71
2021/06/28 04:35:28;;;;;;;1.52;1.40;;;17.90;92.60;;;;;;5055031;28;20059;-72
2021/06/28 04:37:54;;;;;;;2.15;1.50;;;18.00;92.60;;;;;;5054479;28;20021;-72
2021/06/28 04:40:22;;;;;;;1.88;1.65;;;18.00;92.60;;;;;;5054921;28;20029;-72
2021/06/28 04:42:49;;;;;;;1.77;1.67;;;18.00;92.60;;;;;;5054874;28;20037;-72
2021/06/28 04:45:18;;;;;;;2.17;1.73;;;18.10;92.60;;;;;;5054815;28;20017;-72
2021/06/28 04:47:44;;;;;;;;;;;18.10;92.60;;;;;;5055212;28;20032;-72
2021/06/28 04:50:11;;;;;;;3.03;1.70;;;18.10;92.60;;;;;;5054753;28;20361;-71
2021/06/28 04:52:37;;;;;;;2.35;1.80;;;18.20;92.60;;;;;;5054182;28;20067;-71
2021/06/28 04:55:05;;;;;;;2.28;1.42;;;18.30;92.50;;;;;;5036785;28;20009;-72
2021/06/28 04:57:31;;;;;;;2.15;1.63;;;18.30;92.50;;;;;;5054490;28;20639;-72
2021/06/28 04:59:56;;;;;;;1.60;1.50;;;18.30;92.50;;;;;;5054565;28;20021;-72
2021/06/28 05:02:22;;;;;;;2.13;1.80;;;18.40;92.50;;;;;;5054543;28;20358;-72
2021/06/28 05:04:48;;;;;;;2.50;1.85;;;18.50;92.50;;;;;;5054614;28;20025;-72
2021/06/28 05:07:17;;;;;;;1.70;1.60;;;18.50;92.50;;;;;;5054020;28;20035;-72
2021/06/28 05:09:44;;;;;;;2.30;1.92;;;18.60;92.40;;;;;;5054219;28;20477;-72
2021/06/28 05:12:10;;;;;;;2.20;1.90;;;18.70;92.50;;;;;;5053906;28;20029;-72
2021/06/28 05:14:36;;;;;;;2.72;2.05;;;18.70;92.40;;;;;;5036555;28;20087;-72
2021/06/28 05:17:02;;;;;;;2.83;2.10;;;18.80;92.40;;;;;;5054153;28;20413;-72
2021/06/28 05:19:27;;;;;;;2.72;1.50;;;18.90;92.40;;;;;;5054214;28;20025;-72
2021/06/28 05:21:53;;;;;;;2.30;1.73;;;18.90;92.30;;;;;;5053461;28;20389;-72
2021/06/28 05:24:18;;;;;;;2.28;1.88;;;19.00;92.30;;;;;;5054009;28;20021;-72
2021/06/28 05:26:44;;;;;;;2.88;1.83;;;19.10;92.20;;;;;;5054022;28;20415;-72
2021/06/28 05:29:09;;;;;;;2.63;1.95;;;19.10;92.20;;;;;;5036012;28;20031;-72
2021/06/28 05:31:35;;;;;;;2.00;1.80;;;19.20;92.20;;;;;;5053907;28;20013;-72
2021/06/28 05:34:00;;;;;;;2.58;1.88;;;19.20;92.20;;;;;;5053840;28;20381;-72
2021/06/28 05:36:26;;;;;;;2.45;2.25;;;19.30;92.10;;;;;;5053505;28;20068;-72
2021/06/28 05:38:51;;;;;;;2.47;1.75;;;19.30;92.10;;;;;;5053880;28;20108;-72
2021/06/28 05:41:17;;;;;;;2.35;1.85;;;19.40;92.10;;;;;;5053654;28;20195;-71
2021/06/28 05:43:44;;;;;;;2.25;1.92;;;19.40;92.10;;;;;;5053788;28;20347;-71
2021/06/28 05:46:10;;;;;;;2.58;1.92;;;19.50;92.10;;;;;;5052914;28;20143;-72
2021/06/28 05:48:35;;;;;;;1.50;1.40;;;19.60;92.10;;;;;;5053721;28;20111;-71
2021/06/28 05:51:01;;;;;;;2.63;1.90;;;19.60;92.00;;;;;;5053010;28;20032;-71
2021/06/28 05:53:27;;;;;;;3.08;2.22;;;19.70;92.00;;;;;;5035771;28;20138;-72
2021/06/28 05:55:52;;;;;;;2.53;1.80;;;19.70;91.90;;;;;;5035589;28;20036;-72
2021/06/28 05:58:22;;;;;;;3.13;2.55;;;19.80;91.90;;;;;;5053433;28;20021;-72
2021/06/28 06:00:48;;;;;;;3.47;2.40;;;19.90;91.90;;;;;;5053379;28;20055;-72
2021/06/28 06:03:13;;;;;;;2.55;1.80;;;19.90;91.80;;;;;;5053439;28;20029;-71
2021/06/28 06:05:39;;;;;;;2.67;2.17;;;19.90;91.80;;;;;;5052874;28;20047;-71
2021/06/28 06:08:05;;;;;;;3.58;2.72;;;20.00;91.80;;;;;;5035514;28;20439;-72
2021/06/28 06:10:30;;;;;;;2.20;1.98;;;20.00;91.80;;;;;;5053169;28;20021;-71
2021/06/28 06:12:56;;;;;;;2.40;2.00;;;20.00;92.00;;;;;;5053025;28;20451;-71
2021/06/28 06:15:22;;;;;;;2.53;2.08;;;20.10;92.10;;;;;;5053019;28;20024;-71
2021/06/28 06:17:47;;;;;;;2.60;2.05;;;20.10;91.80;;;;;;5053175;28;20052;-72
2021/06/28 06:20:13;;;;;;;2.70;1.92;;;20.10;91.80;;;;;;5052649;28;20032;-74
2021/06/28 06:22:39;;;;;;;2.45;2.25;;;20.20;91.80;;;;;;5053025;28;20025;-72
2021/06/28 06:25:06;;;;;;;3.53;2.00;;;20.20;92.00;;;;;;5035176;28;20044;-72
2021/06/28 06:27:32;;;;;;;2.47;2.20;;;20.20;91.70;;;;;;5053011;28;20052;-77
2021/06/28 06:29:58;;;;;;;1.92;1.75;;;20.20;91.70;;;;;;5035191;28;20017;-74
2021/06/28 06:32:24;;;;;;;3.08;2.10;;;20.30;91.60;;;;;;5052624;28;20377;-74
2021/06/28 06:34:50;;;;;;;2.33;2.13;;;20.40;91.60;;;;;;5034847;28;20473;-74
2021/06/28 06:37:16;;;;;;;1.83;1.60;;;20.40;91.60;;;;;;5052888;28;20033;-74
2021/06/28 06:39:42;;;;;;;2.42;2.05;;;20.40;91.60;;;;;;5052965;28;20430;-74
2021/06/28 06:42:08;;;;;;;2.65;2.10;;;20.50;91.60;;;;;;5052939;28;20552;-74
2021/06/28 06:44:33;;;;;;;2.95;2.25;;;20.50;91.60;;;;;;5052838;28;20021;-73
2021/06/28 06:46:59;;;;;;;2.80;2.22;;;20.50;91.60;;;;;;5052316;28;20071;-73
2021/06/28 06:49:25;;;;;;;2.60;2.08;;;20.60;91.60;;;;;;5052694;28;20079;-72
2021/06/28 06:51:50;;;;;;;2.45;2.00;;;20.60;91.60;;;;;;5052844;28;20021;-72
2021/06/28 06:54:16;;;;;;;2.42;2.15;;;20.60;91.60;;;;;;5034943;28;20021;-75
2021/06/28 06:56:42;;;;;;;2.97;1.95;;;20.60;91.60;;;;;;5054907;28;20490;-72
2021/06/28 06:59:07;;;;;;;2.58;2.08;;;20.70;91.50;;;;;;5056918;28;20032;-72
2021/06/28 07:01:34;;;;;;;2.95;2.38;;;20.80;91.50;;;;;;5056480;28;20384;-72
2021/06/28 07:03:59;;;;;;;2.17;1.77;;;20.80;91.40;;;;;;5056669;28;20025;-72
2021/06/28 07:06:25;;;;;;;2.65;1.85;;;20.90;91.40;;;;;;5056793;28;20484;-72
2021/06/28 07:08:51;;;;;;;3.03;2.38;;;21.00;91.30;;;;;;5056640;28;20420;-72
2021/06/28 07:11:16;;;;;;;2.30;2.10;;;21.00;91.30;;;;;;5056539;28;20477;-72
2021/06/28 07:13:43;;;;;;;1.88;1.70;;;21.10;91.30;;;;;;5056307;28;20056;-72
2021/06/28 07:16:10;;;;;;;2.75;1.90;;;21.20;91.30;;;;;;5056027;28;20017;-72
2021/06/28 07:18:36;;;;;;;2.30;2.10;;;21.20;91.20;;;;;;5056218;28;20482;-72
2021/06/28 07:21:03;;;;;;;2.58;2.35;;;21.30;91.20;;;;;;5055950;28;20044;-73
2021/06/28 07:23:29;;;;;;;2.92;2.50;;;21.30;91.20;;;;;;5038249;28;20013;-72
2021/06/28 07:25:55;;;;;;;2.83;2.22;;;21.40;91.10;;;;;;5056257;28;20118;-73
2021/06/28 07:28:20;;;;;;;2.80;1.88;;;21.50;91.10;;;;;;5056345;28;20696;-73
2021/06/28 07:30:46;;;;;;;3.10;2.58;;;21.60;91.00;;;;;;5037661;28;20477;-72
2021/06/28 07:33:11;;;;;;;2.05;1.83;;;21.70;91.30;;;;;;5056234;28;20438;-73
2021/06/28 07:35:37;;;;;;;2.45;2.00;;;21.70;91.00;;;;;;5056117;28;20088;-74
2021/06/28 07:38:03;;;;;;;2.75;2.05;;;21.70;91.00;;;;;;5056071;28;20320;-73
2021/06/28 07:40:28;;;;;;;3.53;2.83;;;21.80;91.00;;;;;;5038081;28;20063;-73
2021/06/28 07:42:54;;;;;;;3.63;2.47;;;21.80;90.90;;;;;;5037927;28;20440;-73
2021/06/28 07:45:21;;;;;;;3.42;2.80;;;21.80;90.90;;;;;;5055707;28;20021;-73
2021/06/28 07:47:48;;;;;;;3.10;2.20;;;21.90;90.90;;;;;;5055857;28;20096;-73
2021/06/28 07:50:14;;;;;;;2.63;1.77;;;22.00;90.90;;;;;;5055913;28;20028;-73
2021/06/28 07:52:41;;;;;;;2.40;2.15;;;22.10;90.90;;;;;;5055829;28;20520;-73
2021/06/28 07:55:09;;;;;;;2.67;2.20;;;22.10;90.80;;;;;;5055713;28;20032;-72
2021/06/28 07:57:35;;;;;;;2.45;2.05;;;22.10;90.80;;;;;;5037929;28;20025;-73
2021/06/28 08:00:03;;;;;;;2.17;1.83;;;22.20;90.80;;;;;;5055265;28;20025;-73
2021/06/28 08:02:28;;;;;;;2.60;2.00;;;22.20;90.80;;;;;;5055420;28;20115;-73
2021/06/28 08:04:56;;;;;;;2.88;2.15;;;22.30;90.70;;;;;;5055543;28;20021;-73
2021/06/28 08:07:21;;;;;;;1.83;1.55;;;22.40;90.70;;;;;;5054753;28;20037;-73
2021/06/28 08:09:47;;;;;;;3.67;2.50;;;22.50;90.60;;;;;;5055346;28;20036;-72
2021/06/28 08:12:12;;;;;;;2.42;2.20;;;22.50;90.60;;;;;;5055253;28;20103;-72
2021/06/28 08:14:38;;;;;;;2.58;2.00;;;22.50;90.60;;;;;;5055139;28;20033;-73
2021/06/28 08:17:03;;;;;;;2.55;2.22;;;22.60;90.90;;;;;;5055236;28;20031;-73
2021/06/28 08:19:29;;;;;;;2.60;2.05;;;22.60;90.60;;;;;;5037414;28;20017;-73
2021/06/28 08:21:55;;;;;;;2.05;1.80;;;22.70;90.70;;;;;;5055363;28;20103;-74
2021/06/28 08:24:21;;;;;;;2.50;2.30;;;22.70;90.60;;;;;;5055257;28;20029;-72
2021/06/28 08:26:51;;;;;;;2.55;2.00;;;22.80;90.60;;;;;;5054790;28;20108;-72
2021/06/28 08:29:18;;;;;;;2.58;1.98;;;22.80;90.60;;;;;;5054973;28;20010;-72
2021/06/28 08:31:45;;;;;;;2.03;1.88;;;22.80;90.60;;;;;;5055089;28;20116;-73
2021/06/28 08:34:14;;;;;;;2.38;2.10;;;22.90;90.60;;;;;;5054978;28;20017;-72
2021/06/28 08:36:40;;;;;;;2.30;1.95;;;22.90;90.60;;;;;;5054883;28;20116;-72
2021/06/28 08:39:06;;;;;;;2.83;2.28;;;23.00;90.60;;;;;;5054904;28;20014;-72
2021/06/28 08:41:33;;;;;;;2.60;2.00;;;23.10;90.60;;;;;;5054662;28;20482;-72
2021/06/28 08:43:58;;;;;;;2.75;2.08;;;23.10;90.50;;;;;;5054347;28;20029;-72
2021/06/28 08:46:24;;;;;;;2.85;2.42;;;23.20;90.50;;;;;;5054844;28;20021;-72
2021/06/28 08:48:50;;;;;;;2.63;2.42;;;23.20;90.40;;;;;;5054648;28;20048;-73
2021/06/28 08:51:16;;;;;;;2.03;1.75;;;23.30;90.40;;;;;;5054948;28;20044;-73
2021/06/28 08:53:42;;;;;;;2.35;1.90;;;23.40;90.40;;;;;;5036731;28;20060;-72
2021/06/28 08:56:07;;;;;;;3.30;2.38;;;23.50;90.30;;;;;;5054493;28;20079;-72
2021/06/28 08:58:34;;;;;;;2.72;2.30;;;23.60;90.30;;;;;;5036089;28;20059;-73
2021/06/28 09:01:00;;;;;;;2.30;2.10;;;23.60;90.20;;;;;;5054395;28;20033;-73
2021/06/28 09:03:26;;;;;;;2.25;2.05;;;23.70;90.10;;;;;;5036584;28;20058;-73
2021/06/28 09:06:00;;;;;;;3.15;2.42;;;23.80;90.10;;;;;;5054415;28;20025;-73
2021/06/28 09:08:26;;;;;;;2.90;2.08;;;23.80;90.10;;;;;;5036465;28;20025;-73
2021/06/28 09:10:52;;;;;;;2.30;2.08;;;23.90;90.00;;;;;;5054314;28;20029;-73
2021/06/28 09:13:34;;;;;;;2.88;2.30;;;23.90;90.10;;;;;;5053574;28;20045;-73
2021/06/28 09:16:27;;;;;;;2.72;2.28;;;23.90;90.10;;;;;;5054324;28;20052;-73
2021/06/28 09:18:54;;;;;;;2.85;2.15;;;24.00;90.00;;;;;;5054210;28;20013;-73
2021/06/28 09:21:26;;;;;;;2.17;1.95;;;24.00;90.00;;;;;;5053964;28;20083;-73
2021/06/28 09:23:52;;;;;;;2.15;1.95;;;24.10;90.30;;;;;;5053810;28;20091;-73
2021/06/28 09:26:19;;;;;;;2.75;2.25;;;24.20;90.00;;;;;;5054005;28;20021;-73
2021/06/28 09:28:48;;;;;;;2.40;1.90;;;24.30;90.00;;;;;;5054054;28;20420;-72
2021/06/28 09:31:17;;;;;;;;;;;24.40;89.80;;;;;;5054158;28;20060;-72
2021/06/28 09:33:43;;;;;;;2.95;2.13;;;24.50;90.00;;;;;;5053792;28;19919;-74
2021/06/28 09:36:24;;;;;;;2.13;1.70;;;24.70;89.60;;;;;;5053758;28;20029;-74
2021/06/28 09:38:49;;;;;;;2.78;1.88;;;24.80;89.30;;;;;;5053794;28;20021;-74
2021/06/28 09:41:26;;;;;;;2.85;1.98;;;25.00;89.20;;;;;;5035442;28;20494;-73
2021/06/28 09:43:58;;;;;;;1.77;1.63;;;25.20;88.80;;;;;;5053683;28;20039;-74
2021/06/28 09:46:23;;;;;;;2.17;1.80;;;25.20;88.70;;;;;;5053805;28;20032;-73
2021/06/28 09:48:52;;;;;;;2.10;1.90;;;25.20;88.60;;;;;;5035075;28;20039;-73
2021/06/28 09:51:20;;;;;;;2.70;1.92;;;25.30;88.60;;;;;;5035468;28;20481;-73
2021/06/28 09:54:17;;;;;;;1.60;1.43;;;25.30;88.50;;;;;;5053650;28;20017;-73
2021/06/28 09:56:45;;;;;;;1.42;1.33;;;25.40;88.80;;;;;;5053229;28;20025;-73
2021/06/28 09:59:37;;;;;;;1.73;1.52;;;25.40;88.30;;;;;;5053498;28;20122;-74
2021/06/28 10:02:23;;;;;;;1.85;1.67;;;25.40;88.30;;;;;;5053541;28;20491;-73
2021/06/28 10:05:13;;;;;;;1.33;1.15;;;25.30;88.20;;;;;;5053239;28;20496;-74
2021/06/28 10:07:40;;;;;;;1.30;1.20;;;25.30;88.40;;;;;;5053503;28;20369;-73
2021/06/28 10:10:27;;;;;;;1.75;1.60;;;25.20;88.50;;;;;;5034954;28;20021;-73
2021/06/28 10:12:56;;;;;;;1.58;1.48;;;25.20;88.50;;;;;;5053155;28;20036;-73
2021/06/28 10:15:25;;;;;;;2.22;2.03;;;25.20;88.30;;;;;;5053031;28;20108;-74
2021/06/28 10:17:51;;;;;;;1.67;1.52;;;25.20;88.20;;;;;;5053158;28;20409;-72
2021/06/28 10:20:20;;;;;;;1.63;1.50;;;25.20;88.10;;;;;;5035360;28;20017;-72
2021/06/28 10:22:47;;;;;;;1.85;1.38;;;25.30;88.00;;;;;;5053131;28;20419;-73
2021/06/28 10:25:16;;;;;;;1.88;1.63;;;25.30;88.00;;;;;;5052648;28;20092;-73
2021/06/28 10:27:42;;;;;;;1.50;1.40;;;25.20;88.50;;;;;;5053085;28;20489;-73
2021/06/28 10:30:11;;;;;;;1.50;1.40;;;25.20;88.00;;;;;;5034888;28;20035;-73
2021/06/28 10:32:37;;;;;;;1.40;1.30;;;25.10;88.10;;;;;;5052637;28;20025;-73
2021/06/28 10:35:05;;;;;;;1.70;1.55;;;25.10;88.30;;;;;;5053087;28;20071;-72
2021/06/28 10:37:38;;;;;;;1.75;1.65;;;25.10;88.20;;;;;;5052925;28;20048;-72
2021/06/28 10:40:15;;;;;;;1.60;1.50;;;25.10;88.20;;;;;;5052583;28;20083;-72
2021/06/28 10:42:44;;;;;;;1.80;1.48;;;25.20;88.10;;;;;;5052977;28;20091;-72
2021/06/28 10:45:11;;;;;;;2.13;1.75;;;25.20;87.90;;;;;;5052776;28;20466;-72
2021/06/28 10:47:38;;;;;;;2.35;2.03;;;25.30;87.80;;;;;;5052793;28;20447;-73
2021/06/28 10:50:06;;;;;;;1.60;1.50;;;25.20;87.70;;;;;;5062280;28;20444;-72
2021/06/28 10:52:37;;;;;;;2.17;1.98;;;25.20;87.90;;;;;;5072588;28;20028;-73
2021/06/28 10:55:19;;;;;;;1.40;1.27;;;25.10;87.90;;;;;;5067104;28;20029;-73
2021/06/28 10:57:47;;;;;;;2.13;1.70;;;25.10;87.90;;;;;;5052859;28;20432;-72
2021/06/28 11:00:14;;;;;;;2.20;2.00;;;25.00;87.90;;;;;;5052757;28;20067;-72
2021/06/28 11:02:41;;;;;;;1.48;1.38;;;25.00;88.10;;;;;;5052663;28;20041;-72
2021/06/28 11:05:08;;;;;;;1.50;1.40;;;24.90;88.10;;;;;;5052625;28;20021;-72
2021/06/28 11:07:42;;;;;;;1.60;1.50;;;24.90;88.70;;;;;;5060581;28;20021;-72
2021/06/28 11:10:35;;;;;;;1.70;1.60;;;24.80;88.20;;;;;;5072452;28;20024;-72
2021/06/28 11:13:28;;;;;;;2.53;2.10;;;24.70;88.20;;;;;;5072256;28;20056;-72
2021/06/28 11:16:14;;;;;;;2.65;1.95;;;24.60;88.50;;;;;;5072588;28;20031;-72
2021/06/28 11:18:39;;;;;;;2.08;1.92;;;24.50;88.60;;;;;;5072351;28;20035;-72
2021/06/28 11:21:05;;;;;;;1.63;1.50;;;24.40;88.60;;;;;;5072554;28;20107;-71
2021/06/28 11:23:31;;;;;;;2.20;2.00;;;24.30;88.60;;;;;;5072099;28;20030;-72
2021/06/28 11:25:57;;;;;;;2.00;1.80;;;24.30;88.60;;;;;;5072347;28;20400;-72
2021/06/28 11:28:31;;;;;;;2.00;1.80;;;24.20;88.60;;;;;;5072473;28;20027;-72
2021/06/28 11:31:07;;;;;;;3.15;2.17;;;24.20;88.60;;;;;;5072358;28;20021;-72
2021/06/28 11:33:45;;;;;;;2.20;2.00;;;24.10;88.80;;;;;;5072308;28;20063;-72
2021/06/28 11:36:22;;;;;;;2.13;1.85;;;24.00;88.80;;;;;;5072510;28;20056;-72
2021/06/28 11:38:49;;;;;;;2.10;1.67;;;23.90;88.70;;;;;;5072038;28;20036;-72
2021/06/28 11:41:17;;;;;;;2.75;1.88;;;23.80;88.90;;;;;;5069768;28;20059;-73
2021/06/28 11:43:45;;;;;;;2.13;1.77;;;23.80;88.90;;;;;;5054187;28;20112;-72
2021/06/28 11:46:10;;;;;;;2.28;2.05;;;23.80;88.90;;;;;;5056073;28;20025;-72
2021/06/28 11:48:37;;;;;;;1.95;1.73;;;23.80;88.80;;;;;;5063464;28;20416;-72
2021/06/28 11:51:21;;;;;;;1.60;1.50;;;23.80;88.70;;;;;;5056988;28;20036;-73
2021/06/28 11:53:51;;;;;;;3.05;2.30;;;23.70;88.50;;;;;;5056019;28;20079;-72
2021/06/28 11:56:32;;;;;;;1.92;1.73;;;23.70;88.60;;;;;;5055817;28;20029;-72
2021/06/28 11:59:05;;;;;;;2.75;2.05;;;23.70;88.70;;;;;;5055713;28;20021;-72
2021/06/28 12:01:54;;;;;;;2.50;2.28;;;23.70;88.60;;;;;;5055730;28;20025;-72
2021/06/28 12:04:24;;;;;;;;;;;23.70;88.40;;;;;;5064271;28;20025;-73
2021/06/28 12:06:51;;;;;;;2.47;1.70;;;23.70;88.60;;;;;;5074840;28;19918;-73
2021/06/28 12:09:26;;;;;;;1.95;1.80;;;23.70;88.30;;;;;;5075484;28;20032;-72
2021/06/28 12:12:08;;;;;;;1.90;1.60;;;23.70;88.20;;;;;;5073949;28;20037;-72
2021/06/28 12:14:44;;;;;;;2.00;1.58;;;23.80;88.00;;;;;;5047741;28;20077;-72
2021/06/28 12:17:24;;;;;;;2.25;1.67;;;23.90;87.80;;;;;;5071902;28;20050;-72
2021/06/28 12:20:05;;;;;;;1.77;1.67;;;24.00;87.70;;;;;;5075171;28;20024;-71
2021/06/28 12:22:38;;;;;;;2.33;2.00;;;24.00;87.60;;;;;;5072991;28;20040;-72
2021/06/28 12:25:12;;;;;;;3.22;2.00;;;24.10;87.60;;;;;;5075306;28;20019;-71
2021/06/28 12:27:40;;;;;;;2.20;2.00;;;24.00;87.40;;;;;;5075351;28;20496;-71
2021/06/28 12:30:16;;;;;;;2.45;1.83;;;24.20;87.50;;;;;;5074995;28;20419;-71
2021/06/28 12:32:46;;;;;;;1.73;1.60;;;24.20;87.30;;;;;;5075108;28;20345;-72
2021/06/28 12:35:17;;;;;;;2.03;1.80;;;24.20;87.40;;;;;;5074719;28;20025;-72
2021/06/28 12:37:51;;;;;;;2.05;1.70;;;24.20;87.40;;;;;;5058796;28;20025;-72
2021/06/28 12:40:18;;;;;;;2.13;1.75;;;24.20;87.40;;;;;;5037187;28;20013;-72
2021/06/28 12:42:46;;;;;;;1.75;1.50;;;24.20;87.40;;;;;;5054820;28;20537;-72
2021/06/28 12:45:14;;;;;;;2.38;2.08;;;24.20;87.40;;;;;;5054894;28;20056;-72
2021/06/28 12:47:42;;;;;;;2.15;1.92;;;24.10;87.40;;;;;;5054828;28;20030;-72
2021/06/28 12:50:16;;;;;;;2.35;2.13;;;24.10;87.30;;;;;;5054347;28;20028;-72
2021/06/28 12:52:42;;;;;;;3.28;2.53;;;24.10;87.20;;;;;;5054653;28;20474;-72